Time;durP1;ratioP1;P1;durP2;ratioP2;P2;SDS_P1;SDS_P2;PMS_P1;PMS_P2;Temp;Humidity;BMP_temperature;BMP_pressure;BME280_temperature;BME280_humidity;BME280_pressure;Samples;Min_cycle;Max_cycle;Signal;HPM_P1;HPM_P2
2023/10/18 00:00:33;;;;;;;0.70;0.70;;;8.70;99.90;;;8.76;74.19;100395.91;4984880;28;21009;-65
2023/10/18 00:03:01;;;;;;;1.30;1.20;;;8.70;99.90;;;8.71;74.32;100385.00;4988993;28;21150;-65
2023/10/18 00:05:29;;;;;;;1.80;1.20;;;8.70;99.90;;;8.68;74.38;100383.44;4974692;28;20694;-65
2023/10/18 00:07:57;;;;;;;1.77;1.67;;;8.60;99.90;;;8.64;74.95;100384.59;4989418;28;20646;-65
2023/10/18 00:10:27;;;;;;;1.83;1.70;;;8.60;99.90;;;8.60;74.91;100383.13;4978513;28;21244;-65
2023/10/18 00:12:55;;;;;;;1.90;1.70;;;8.50;99.90;;;8.62;74.51;100383.00;4989621;28;20757;-66
2023/10/18 00:15:23;;;;;;;1.40;1.30;;;8.60;99.90;;;8.57;74.88;100376.38;4990127;28;20632;-66
2023/10/18 00:17:50;;;;;;;2.77;1.97;;;8.50;99.90;;;8.56;74.68;100386.88;4981551;28;20635;-65
2023/10/18 00:20:23;;;;;;;1.67;1.57;;;8.50;99.90;;;8.56;75.11;100382.47;4985036;28;20713;-65
2023/10/18 00:22:50;;;;;;;0.80;0.80;;;8.50;99.90;;;8.56;75.29;100379.06;4987118;28;21248;-65
2023/10/18 00:25:19;;;;;;;1.93;1.83;;;8.50;99.90;;;8.55;75.58;100385.19;4991578;28;20713;-66
2023/10/18 00:27:46;;;;;;;2.10;1.90;;;8.50;99.90;;;8.55;75.12;100385.19;4990464;28;21180;-64
2023/10/18 00:30:17;;;;;;;2.03;1.80;;;8.50;99.90;;;8.57;75.29;100372.91;4986745;28;20654;-65
2023/10/18 00:32:44;;;;;;;2.13;2.00;;;8.50;99.90;;;8.57;75.36;100380.72;4982636;28;20753;-65
2023/10/18 00:35:21;;;;;;;2.10;1.87;;;8.50;99.90;;;8.56;75.16;100384.28;4985291;28;20638;-65
2023/10/18 00:37:54;;;;;;;6.43;5.63;;;8.50;99.90;;;8.55;74.88;100380.00;4988771;28;21035;-65
2023/10/18 00:43:14;;;;;;;3.60;1.70;;;8.40;99.90;;;8.49;74.95;100365.66;4990501;28;20630;-65
2023/10/18 00:45:46;;;;;;;2.10;1.67;;;8.40;99.90;;;8.47;75.71;100362.31;4986001;28;20630;-65
2023/10/18 00:48:14;;;;;;;3.30;2.00;;;8.40;99.90;;;8.47;75.82;100357.13;4983253;28;20684;-65
2023/10/18 00:50:45;;;;;;;2.27;2.07;;;8.40;99.90;;;8.45;75.29;100351.16;4990165;28;20714;-65
2023/10/18 00:53:20;;;;;;;2.70;2.00;;;8.40;99.90;;;8.45;75.17;100350.34;4986157;28;20761;-65
2023/10/18 00:55:59;;;;;;;2.37;1.87;;;8.40;99.90;;;8.39;75.84;100343.78;4986721;28;20665;-65
2023/10/18 00:58:29;;;;;;;2.47;2.27;;;8.30;99.90;;;8.38;75.98;100343.91;4986259;28;20658;-66
2023/10/18 01:00:58;;;;;;;2.63;2.50;;;8.30;99.90;;;8.37;76.02;100344.81;4983162;28;20732;-65
2023/10/18 01:03:28;;;;;;;2.40;2.20;;;8.30;99.90;;;8.36;76.27;100343.16;4980790;28;20642;-65
2023/10/18 01:06:21;;;;;;;1.87;1.77;;;8.30;99.90;;;8.35;76.46;100328.50;4991153;28;20630;-65
2023/10/18 01:08:49;;;;;;;3.23;2.27;;;8.30;99.90;;;8.30;76.64;100331.44;4990201;28;20757;-64
2023/10/18 01:11:23;;;;;;;1.43;1.33;;;8.20;99.90;;;8.29;76.17;100331.50;4983687;28;21015;-65
2023/10/18 01:13:50;;;;;;;3.90;2.30;;;8.20;99.90;;;8.27;76.24;100335.97;4995354;28;20676;-65
2023/10/18 01:16:21;;;;;;;3.33;3.10;;;8.20;99.90;;;8.22;75.80;100327.66;4989412;28;20630;-65
2023/10/18 01:18:51;;;;;;;2.13;1.83;;;8.20;99.90;;;8.22;76.65;100320.66;4981527;28;20758;-65
2023/10/18 01:21:21;;;;;;;2.53;2.37;;;8.10;99.90;;;8.19;76.35;100323.47;4983345;28;20721;-65
2023/10/18 01:23:56;;;;;;;3.60;3.40;;;8.10;99.90;;;8.16;76.29;100321.06;4978531;28;20681;-64
2023/10/18 01:26:27;;;;;;;2.37;2.27;;;8.10;99.90;;;8.16;76.00;100312.44;4984463;28;20729;-65
2023/10/18 01:28:57;;;;;;;0.73;0.73;;;8.10;99.90;;;8.14;76.25;100311.72;4987863;28;20742;-65
2023/10/18 01:31:24;;;;;;;3.27;3.03;;;8.10;99.90;;;8.12;77.01;100303.19;4987558;28;20654;-66
2023/10/18 01:33:53;;;;;;;2.53;2.33;;;8.10;99.90;;;8.10;76.50;100310.25;4989621;28;20677;-66
2023/10/18 01:36:21;;;;;;;0.90;0.80;;;8.00;99.90;;;8.07;76.88;100297.47;4986941;28;20653;-64
2023/10/18 01:38:54;;;;;;;8.23;7.47;;;8.00;99.90;;;8.03;77.07;100302.03;4989717;28;20681;-65
2023/10/18 01:41:25;;;;;;;51.60;23.77;;;8.00;99.90;;;8.00;76.87;100301.41;4983095;28;20697;-65
2023/10/18 01:44:07;;;;;;;4.00;1.80;;;7.90;99.90;;;8.00;77.22;100298.81;4988518;28;20684;-65
2023/10/18 01:46:43;;;;;;;1.67;1.57;;;7.90;99.90;;;7.97;76.71;100299.00;4981918;28;20631;-65
2023/10/18 01:49:13;;;;;;;1.93;1.63;;;7.90;99.90;;;7.96;77.03;100289.56;4981803;28;20653;-66
2023/10/18 01:51:44;;;;;;;1.97;1.87;;;7.90;99.90;;;7.95;77.35;100295.69;4987754;28;20642;-65
2023/10/18 01:54:15;;;;;;;2.50;2.10;;;7.90;99.90;;;7.94;77.33;100288.84;4981385;28;20839;-65
2023/10/18 01:56:46;;;;;;;2.17;2.07;;;7.90;99.90;;;7.91;76.97;100283.84;4987958;28;20662;-65
2023/10/18 01:59:16;;;;;;;1.70;1.50;;;7.90;99.90;;;7.89;77.58;100283.94;4990749;28;20643;-65
2023/10/18 02:01:53;;;;;;;2.50;2.30;;;7.80;99.90;;;7.87;77.79;100287.56;4989001;28;20630;-66
2023/10/18 02:04:27;;;;;;;2.33;2.20;;;7.80;99.90;;;7.90;76.92;100287.38;4986191;28;21313;-65
2023/10/18 02:07:17;;;;;;;2.93;2.50;;;7.80;99.90;;;7.88;77.00;100289.25;4992233;28;20615;-65
2023/10/18 02:09:57;;;;;;;4.37;2.50;;;7.90;99.90;;;7.88;77.91;100290.06;4971126;28;20665;-65
2023/10/18 02:12:27;;;;;;;2.23;2.03;;;7.80;99.90;;;7.88;77.38;100284.06;4988035;28;21184;-65
2023/10/18 02:14:57;;;;;;;2.83;2.17;;;7.80;99.90;;;7.87;78.04;100287.56;4991258;28;20641;-65
2023/10/18 02:17:24;;;;;;;2.73;2.50;;;7.80;99.90;;;7.82;78.17;100282.69;4988563;28;20622;-65
2023/10/18 02:19:52;;;;;;;3.60;1.90;;;7.80;99.90;;;7.84;77.78;100283.41;4992000;28;20642;-65
2023/10/18 02:22:19;;;;;;;3.47;2.80;;;7.80;99.90;;;7.82;78.26;100285.28;4991828;28;20638;-65
2023/10/18 02:24:49;;;;;;;3.07;2.40;;;7.80;99.90;;;7.80;77.19;100282.78;4992285;28;20661;-65
2023/10/18 02:27:16;;;;;;;3.60;2.40;;;7.80;99.90;;;7.76;77.84;100277.88;4991791;28;21246;-65
2023/10/18 02:29:44;;;;;;;2.93;2.07;;;7.70;99.90;;;7.76;77.89;100291.72;4991165;28;21288;-65
2023/10/18 02:34:58;;;;;;;3.73;2.83;;;7.70;99.90;;;7.75;78.35;100284.84;4987402;28;20642;-65
2023/10/18 02:37:25;;;;;;;4.00;3.07;;;7.70;99.90;;;7.74;78.66;100278.00;4987452;28;20658;-64
2023/10/18 02:40:07;;;;;;;2.70;2.50;;;7.70;99.90;;;7.72;78.65;100268.63;4991256;28;20657;-65
2023/10/18 02:42:34;;;;;;;3.60;2.80;;;7.70;99.90;;;7.70;78.49;100276.53;4989724;28;20646;-64
2023/10/18 02:45:07;;;;;;;5.33;3.07;;;7.60;99.90;;;7.70;77.98;100273.94;4992445;28;20680;-65
2023/10/18 02:47:34;;;;;;;3.20;2.83;;;7.60;99.90;;;7.71;78.18;100267.81;4987854;28;21207;-65
2023/10/18 02:50:01;;;;;;;3.13;2.80;;;7.70;99.90;;;7.68;78.34;100273.22;4993637;28;20701;-66
2023/10/18 02:52:30;;;;;;;3.10;2.83;;;7.60;99.90;;;7.69;78.45;100268.81;4990471;28;20730;-65
2023/10/18 02:54:57;;;;;;;2.80;2.10;;;7.60;99.90;;;7.68;78.00;100265.44;4985299;28;20634;-66
2023/10/18 02:57:24;;;;;;;3.10;2.57;;;7.60;99.90;;;7.67;79.15;100266.34;4991145;28;20661;-65
2023/10/18 02:59:51;;;;;;;3.47;2.80;;;7.60;99.90;;;7.65;79.04;100275.16;4991578;28;20682;-65
2023/10/18 03:02:24;;;;;;;15.00;2.53;;;7.60;99.90;;;7.65;78.13;100267.38;4992016;28;20626;-66
2023/10/18 03:04:52;;;;;;;2.40;2.00;;;7.60;99.90;;;7.62;78.88;100258.00;4983331;28;20648;-65
2023/10/18 03:07:22;;;;;;;3.00;2.70;;;7.60;99.90;;;7.57;78.49;100252.31;4993041;28;20622;-65
2023/10/18 03:09:53;;;;;;;3.60;3.30;;;7.60;99.90;;;7.52;78.94;100246.56;4989862;28;20661;-65
2023/10/18 03:12:21;;;;;;;4.20;2.90;;;7.50;99.90;;;7.50;77.86;100237.22;4991469;28;20626;-65
2023/10/18 03:14:55;;;;;;;5.03;2.67;;;7.50;99.90;;;7.48;78.79;100237.31;4988877;28;22954;-65
2023/10/18 03:17:35;;;;;;;2.53;2.33;;;7.50;99.90;;;7.47;78.76;100238.28;4991420;28;20727;-65
2023/10/18 03:20:26;;;;;;;2.83;2.53;;;7.50;99.90;;;7.47;78.22;100224.47;4978452;28;20658;-64
2023/10/18 03:22:51;;;;;;;4.27;3.27;;;7.40;99.90;;;7.40;78.27;100220.59;4984403;28;20651;-64
2023/10/18 03:25:30;;;;;;;3.60;2.70;;;7.40;99.90;;;7.37;77.96;100219.03;4990261;28;20630;-65
2023/10/18 03:27:57;;;;;;;3.63;2.60;;;7.40;99.90;;;7.37;78.85;100221.59;4991289;28;21412;-66
2023/10/18 03:30:41;;;;;;;3.23;2.93;;;7.30;99.90;;;7.38;79.16;100223.28;4979959;28;20656;-65
2023/10/18 03:33:08;;;;;;;4.30;2.90;;;7.40;99.90;;;7.37;78.70;100219.03;4981478;28;20666;-64
2023/10/18 03:35:40;;;;;;;3.03;2.63;;;7.40;99.90;;;7.34;80.01;100214.03;4989010;28;21366;-65
2023/10/18 03:38:17;;;;;;;3.83;3.10;;;7.30;99.90;;;7.36;79.86;100204.38;4991301;28;20673;-64
2023/10/18 03:40:56;;;;;;;5.27;2.73;;;7.30;99.90;;;7.38;79.03;100212.91;4973737;28;21009;-65
2023/10/18 03:43:32;;;;;;;2.80;2.47;;;7.30;99.90;;;7.38;79.86;100199.09;4991573;28;20634;-65
2023/10/18 03:46:29;;;;;;;4.03;3.20;;;7.40;99.90;;;7.39;79.03;100196.38;4989844;28;20668;-65
2023/10/18 03:48:56;;;;;;;3.83;3.10;;;7.30;99.90;;;7.37;79.08;100200.03;4990820;28;20696;-65
2023/10/18 03:51:26;;;;;;;3.03;2.73;;;7.30;99.90;;;7.37;79.63;100205.22;4988567;28;21073;-65
2023/10/18 03:53:55;;;;;;;3.30;2.73;;;7.30;99.90;;;7.39;78.93;100198.97;4988648;28;20670;-65
2023/10/18 03:56:22;;;;;;;2.93;2.33;;;7.40;99.90;;;7.40;79.47;100190.28;4990912;28;20642;-65
2023/10/18 03:58:53;;;;;;;4.70;3.00;;;7.40;99.90;;;7.40;79.38;100200.66;4989829;28;20658;-65
2023/10/18 04:01:21;;;;;;;3.33;2.70;;;7.40;99.90;;;7.38;80.10;100199.09;4990302;28;20673;-65
2023/10/18 04:03:49;;;;;;;2.50;2.30;;;7.40;99.90;;;7.38;80.17;100191.31;4985288;28;20649;-64
2023/10/18 04:06:29;;;;;;;3.83;3.07;;;7.40;99.90;;;7.32;79.53;100192.56;4988707;28;20630;-64
2023/10/18 04:08:58;;;;;;;3.13;2.83;;;7.30;99.90;;;7.29;79.26;100184.13;4973266;28;20697;-64
2023/10/18 04:11:27;;;;;;;3.43;2.37;;;7.30;99.90;;;7.24;80.40;100184.41;4982229;28;20634;-65
2023/10/18 04:13:56;;;;;;;3.03;2.67;;;7.20;99.90;;;7.24;80.04;100168.84;4984859;28;20761;-65
2023/10/18 04:16:28;;;;;;;5.10;3.60;;;7.20;99.90;;;7.23;79.33;100168.94;4989272;28;20631;-64
2023/10/18 04:18:56;;;;;;;2.70;2.50;;;7.20;99.90;;;7.21;79.59;100168.22;4990459;28;20728;-65
2023/10/18 04:21:27;;;;;;;3.33;3.10;;;7.20;99.90;;;7.22;80.35;100156.94;4989476;28;21591;-64
2023/10/18 04:23:56;;;;;;;5.73;3.33;;;7.20;99.90;;;7.22;80.17;100156.94;4988877;28;20626;-65
2023/10/18 04:26:26;;;;;;;3.17;2.90;;;7.20;99.90;;;7.19;79.53;100159.72;4987543;28;21302;-65
2023/10/18 04:29:03;;;;;;;4.00;3.07;;;7.20;99.90;;;7.19;79.47;100157.94;4987347;28;21035;-65
2023/10/18 04:31:32;;;;;;;4.93;2.60;;;7.20;99.90;;;7.18;79.88;100161.47;4990934;28;20634;-65
2023/10/18 04:33:59;;;;;;;2.97;2.40;;;7.20;99.90;;;7.18;80.14;100164.06;4980270;28;20752;-65
2023/10/18 04:36:27;;;;;;;3.67;2.67;;;7.10;99.90;;;7.16;79.71;100165.09;4982813;28;21071;-65
2023/10/18 04:38:56;;;;;;;2.67;2.10;;;7.10;99.90;;;7.13;79.55;100160.94;4990153;28;20774;-65
2023/10/18 04:41:23;;;;;;;2.50;2.30;;;7.10;99.90;;;7.10;80.54;100158.53;4990574;28;21067;-65
2023/10/18 04:44:16;;;;;;;9.73;2.60;;;7.10;99.90;;;7.07;80.36;100161.31;4988246;28;20712;-65
2023/10/18 04:46:47;;;;;;;3.07;2.83;;;7.10;99.90;;;6.97;79.03;100153.31;4988779;28;21310;-65
2023/10/18 04:54:15;;;;;;;3.13;2.47;;;6.90;99.90;;;6.87;80.23;100126.31;4970010;28;20690;-65
2023/10/18 04:56:46;;;;;;;3.43;3.13;;;6.90;99.90;;;6.85;80.18;100132.53;4983714;28;20651;-65
2023/10/18 05:04:29;;;;;;;2.43;2.23;;;6.90;99.90;;;6.92;79.89;100132.03;4980316;28;20638;-64
2023/10/18 05:07:04;;;;;;;2.57;2.37;;;6.90;99.90;;;6.96;79.68;100130.09;4988780;28;20678;-65
2023/10/18 05:09:41;;;;;;;5.20;3.20;;;6.90;99.90;;;6.96;80.77;100127.50;4980858;28;20762;-65
2023/10/18 05:14:43;;;;;;;3.70;1.87;;;7.00;99.90;;;7.00;80.53;100134.97;4988928;28;20662;-65
2023/10/18 05:17:23;;;;;;;5.23;2.70;;;7.00;99.90;;;7.00;80.89;100123.75;4987042;28;20724;-65
2023/10/18 05:19:51;;;;;;;2.60;2.40;;;7.00;99.90;;;6.99;80.88;100132.47;4988659;28;21239;-64
2023/10/18 05:22:24;;;;;;;3.00;2.80;;;7.00;99.90;;;6.97;81.52;100129.13;4987050;28;20646;-65
2023/10/18 05:28:00;;;;;;;3.03;2.10;;;7.00;99.90;;;6.96;81.60;100137.88;4981558;28;20650;-65
2023/10/18 05:34:04;;;;;;;3.33;1.90;;;6.90;99.90;;;6.84;80.19;100123.09;4982949;28;20757;-65
2023/10/18 05:41:35;;;;;;;4.30;3.57;;;6.90;99.90;;;6.85;80.28;100110.03;4988004;28;20705;-65
2023/10/18 05:44:06;;;;;;;6.83;3.50;;;6.90;99.90;;;6.83;80.91;100111.91;4988894;28;20630;-65
2023/10/18 05:46:33;;;;;;;5.60;2.97;;;6.90;99.90;;;6.88;80.72;100106.38;4977117;28;20802;-65
2023/10/18 05:49:01;;;;;;;4.47;3.20;;;6.90;99.90;;;6.88;80.68;100106.38;4978534;28;21235;-65
2023/10/18 05:51:37;;;;;;;5.73;3.20;;;6.90;99.90;;;6.91;80.40;100101.03;4983361;28;21169;-63
2023/10/18 05:54:06;;;;;;;3.90;3.30;;;6.90;99.90;;;6.91;80.61;100098.44;4982778;28;20800;-65
2023/10/18 05:56:33;;;;;;;3.60;3.27;;;6.90;99.90;;;6.90;80.90;100096.75;4986969;28;20631;-65
2023/10/18 06:02:01;;;;;;;4.00;3.50;;;6.90;99.90;;;6.94;81.41;100088.66;4998152;28;20644;-65
2023/10/18 06:04:37;;;;;;;3.63;3.33;;;6.90;99.90;;;6.95;80.76;100092.09;4986450;28;21344;-65
2023/10/18 06:07:09;;;;;;;3.37;2.90;;;6.90;99.90;;;6.97;80.61;100090.25;4990599;28;20630;-65
2023/10/18 06:09:54;;;;;;;5.17;3.43;;;6.90;99.90;;;6.99;81.02;100080.59;4987724;28;21265;-64
2023/10/18 06:12:36;;;;;;;4.40;3.73;;;7.00;99.90;;;7.02;81.61;100077.81;4998632;28;21535;-65
2023/10/18 06:15:13;;;;;;;5.03;3.67;;;7.00;99.90;;;7.02;81.09;100070.03;4987093;28;20748;-63
2023/10/18 06:17:46;;;;;;;5.33;3.23;;;7.00;99.90;;;7.02;80.84;100072.63;4987262;28;20649;-66
2023/10/18 06:20:27;;;;;;;3.53;3.23;;;7.00;99.90;;;7.07;80.50;100082.69;4981726;28;20732;-64
2023/10/18 06:23:16;;;;;;;2.00;1.90;;;7.00;99.90;;;7.15;79.84;100096.00;4984916;28;20626;-65
2023/10/18 06:25:49;;;;;;;3.90;3.40;;;7.10;99.90;;;7.21;80.41;100087.78;4984398;28;20620;-65
2023/10/18 06:28:21;;;;;;;3.80;3.27;;;7.10;99.90;;;7.32;80.33;100088.75;4984455;28;21074;-64
2023/10/18 06:30:56;;;;;;;5.80;3.00;;;7.30;99.90;;;7.51;79.88;100083.97;4987042;28;20623;-65
2023/10/18 06:33:25;;;;;;;5.23;3.73;;;7.40;99.90;;;7.68;79.10;100088.84;4986856;28;20641;-65
2023/10/18 06:35:52;;;;;;;4.40;3.67;;;7.60;99.90;;;7.86;78.59;100085.94;4981475;28;20642;-64
2023/10/18 06:38:22;;;;;;;5.40;3.97;;;7.80;99.90;;;8.07;78.52;100082.63;4989474;28;20642;-64
2023/10/18 06:41:00;;;;;;;5.03;3.27;;;7.90;99.90;;;8.39;77.34;100081.22;4987047;28;20642;-65
2023/10/18 06:43:30;;;;;;;5.20;3.40;;;8.20;99.90;;;8.94;74.94;100078.06;4972776;28;20642;-63
2023/10/18 06:45:57;;;;;;;3.90;3.53;;;8.70;99.90;;;9.75;72.98;100068.34;4986574;28;21285;-65
2023/10/18 06:48:28;;;;;;;3.13;2.93;;;9.40;99.90;;;10.57;68.46;100073.13;4987011;28;20665;-65
2023/10/18 06:50:57;;;;;;;3.80;2.07;;;10.30;99.90;;;11.04;67.05;100077.09;4979501;28;20673;-65
2023/10/18 06:53:25;;;;;;;2.20;2.03;;;10.80;99.90;;;11.30;65.03;100067.91;4988797;28;20657;-65
2023/10/18 06:55:57;;;;;;;2.97;2.73;;;11.10;99.90;;;11.62;64.98;100068.66;4988649;28;20642;-64
2023/10/18 07:01:03;;;;;;;5.47;3.70;;;11.90;99.90;;;12.58;61.52;100073.34;4992438;28;20626;-66
2023/10/18 07:03:33;;;;;;;5.03;3.70;;;12.40;99.90;;;13.17;59.73;100069.66;4989438;28;20642;-64
2023/10/18 07:06:04;;;;;;;3.50;3.20;;;13.00;99.90;;;13.96;57.50;100070.94;4990704;28;21273;-69
2023/10/18 07:08:34;;;;;;;3.50;3.20;;;13.70;99.90;;;14.53;55.11;100075.03;4988140;28;20657;-66
2023/10/18 07:11:01;;;;;;;4.40;3.40;;;14.40;99.90;;;14.90;53.72;100074.06;4994826;28;20765;-66
2023/10/18 07:13:34;;;;;;;5.43;3.87;;;14.80;99.90;;;15.47;53.00;100065.66;4989048;28;20714;-64
2023/10/18 07:16:12;;;;;;;4.80;3.33;;;15.40;99.90;;;16.07;50.84;100063.84;4992615;28;20721;-66
2023/10/18 07:18:45;;;;;;;3.40;3.00;;;16.10;99.20;;;16.13;50.35;100057.94;4988269;28;20653;-66
2023/10/18 07:21:18;;;;;;;5.43;3.70;;;16.20;98.10;;;16.31;50.14;100066.56;4991758;28;20634;-66
2023/10/18 07:23:53;;;;;;;4.30;3.90;;;16.40;97.90;;;16.64;49.05;100062.19;4989058;28;20684;-65
2023/10/18 07:26:22;;;;;;;5.30;3.40;;;16.80;97.20;;;16.98;48.81;100066.34;4991415;28;21177;-66
2023/10/18 07:28:49;;;;;;;4.40;4.00;;;17.10;96.70;;;17.42;47.80;100061.53;4980316;28;20671;-67
2023/10/18 07:31:23;;;;;;;6.93;4.77;;;17.60;95.90;;;17.74;46.15;100069.41;4990257;28;20706;-66
2023/10/18 07:33:50;;;;;;;4.30;3.77;;;18.00;94.40;;;17.89;45.97;100045.75;4984946;28;20673;-66
2023/10/18 07:36:22;;;;;;;13.50;5.10;;;18.20;94.00;;;17.88;46.10;100040.66;4991277;28;20642;-66
2023/10/18 07:38:55;;;;;;;6.87;4.53;;;18.20;93.60;;;17.56;46.51;100034.50;4990735;28;20681;-66
2023/10/18 07:41:28;;;;;;;4.90;3.97;;;17.90;93.50;;;17.25;47.10;100040.66;4985843;28;21371;-67
2023/10/18 07:43:57;;;;;;;4.33;3.93;;;17.50;93.80;;;17.02;47.53;100037.84;4986821;28;21229;-65
2023/10/18 07:46:25;;;;;;;4.57;3.50;;;17.20;94.00;;;17.30;48.06;100036.50;4990615;28;21195;-65
2023/10/18 07:49:04;;;;;;;5.20;3.87;;;17.40;94.40;;;17.96;46.53;100030.06;4988457;28;20668;-66
2023/10/18 07:51:34;;;;;;;3.17;2.87;;;18.00;93.60;;;18.91;44.38;100027.81;4990688;28;20619;-65
2023/10/18 07:54:02;;;;;;;3.47;3.20;;;19.00;92.20;;;19.50;42.80;100026.16;4987547;28;20682;-65
2023/10/18 07:56:31;;;;;;;5.77;3.83;;;19.70;90.90;;;19.59;42.35;100032.97;4989592;28;20735;-65
2023/10/18 08:02:09;;;;;;;6.43;4.37;;;19.90;88.90;;;19.97;41.51;100039.81;4993005;28;20637;-66
2023/10/18 08:04:37;;;;;;;5.40;3.80;;;20.10;87.80;;;20.03;41.21;100031.13;4982558;28;21114;-66
2023/10/18 08:07:10;;;;;;;6.57;4.77;;;20.10;86.90;;;20.09;41.17;100024.25;4984931;28;20696;-65
2023/10/18 08:09:39;;;;;;;4.37;3.13;;;20.20;86.30;;;19.94;41.41;100026.94;4986033;28;21535;-66
2023/10/18 08:12:18;;;;;;;3.93;3.50;;;20.10;86.20;;;19.59;42.17;100030.31;4987165;28;20638;-65
2023/10/18 08:14:50;;;;;;;4.87;3.37;;;19.80;86.50;;;18.78;42.58;100029.44;4988174;28;20766;-66
2023/10/18 08:17:43;;;;;;;5.37;4.30;;;19.10;86.10;;;17.92;44.80;100019.03;4985550;28;20666;-65
2023/10/18 08:22:53;;;;;;;9.60;5.30;;;17.70;90.40;;;16.70;47.86;99996.53;4984247;28;20675;-65
2023/10/18 08:25:32;;;;;;;6.40;4.30;;;17.00;91.00;;;16.21;48.64;99984.25;4988491;28;20645;-65
2023/10/18 08:28:02;;;;;;;3.30;2.57;;;16.40;91.70;;;15.63;49.81;99978.16;4987578;28;20642;-65
2023/10/18 08:33:11;;;;;;;7.03;5.53;;;15.30;93.40;;;14.75;52.62;99979.25;4990741;28;20634;-65
2023/10/18 08:35:38;;;;;;;4.40;3.70;;;14.90;94.30;;;14.53;53.34;99983.16;4986696;28;20673;-66
2023/10/18 08:38:06;;;;;;;3.80;3.50;;;14.60;95.00;;;14.28;53.83;99970.78;4987002;28;21274;-65
2023/10/18 08:40:38;;;;;;;6.70;4.23;;;14.30;95.60;;;14.12;54.18;99982.91;4988255;28;20650;-65
2023/10/18 08:43:30;;;;;;;10.30;4.43;;;14.10;96.20;;;13.87;54.91;99980.00;4988332;28;20622;-65
2023/10/18 08:45:57;;;;;;;9.10;5.43;;;13.90;96.70;;;13.80;55.34;99992.06;4989063;28;20658;-65
2023/10/18 08:48:38;;;;;;;6.47;4.40;;;13.80;97.10;;;13.88;56.25;99975.59;4987285;28;21199;-65
2023/10/18 08:51:06;;;;;;;14.17;4.37;;;13.80;97.70;;;14.50;54.70;99977.41;4989245;28;20636;-65
2023/10/18 08:53:41;;;;;;;6.27;2.47;;;14.30;97.60;;;15.34;53.08;99968.78;4984656;28;21192;-66
2023/10/18 08:56:08;;;;;;;6.07;3.93;;;15.10;96.80;;;16.11;50.67;99955.47;4991492;28;20662;-66
2023/10/18 08:58:39;;;;;;;11.53;5.40;;;16.00;95.30;;;16.62;50.01;99956.19;4981024;28;20757;-66
2023/10/18 09:01:06;;;;;;;8.70;4.90;;;16.50;94.70;;;17.39;48.29;99952.94;4988223;28;20693;-66
2023/10/18 09:03:35;;;;;;;4.37;3.50;;;17.20;93.90;;;18.60;46.50;99976.88;4987666;28;20697;-65
2023/10/18 09:06:04;;;;;;;7.60;5.50;;;18.20;93.10;;;20.17;42.76;99960.56;4988341;28;20656;-66
2023/10/18 09:08:38;;;;;;;7.97;4.60;;;19.80;90.90;;;21.95;39.25;99961.72;4973009;28;20670;-66
2023/10/18 09:11:21;;;;;;;5.37;3.03;;;21.60;86.50;;;23.42;36.19;99947.28;4987149;28;20664;-65
2023/10/18 09:14:11;;;;;;;4.20;3.80;;;23.30;78.90;;;24.47;34.63;99936.91;4987367;28;20740;-65
2023/10/18 09:16:43;;;;;;;10.90;5.57;;;24.50;74.50;;;25.35;33.34;99943.72;4987077;28;21266;-66
2023/10/18 09:19:11;;;;;;;9.60;5.43;;;25.40;70.20;;;26.04;31.87;99951.34;4987277;28;20665;-64
2023/10/18 09:21:57;;;;;;;9.20;6.27;;;26.10;67.10;;;25.62;32.19;99947.75;4981384;28;20638;-66
2023/10/18 09:24:29;;;;;;;7.10;5.67;;;25.90;65.20;;;25.12;32.97;99947.06;4982933;28;20626;-65
2023/10/18 09:26:58;;;;;;;6.80;4.30;;;25.40;65.20;;;24.77;33.01;99939.81;4989545;28;20738;-66
2023/10/18 09:29:29;;;;;;;6.30;5.53;;;24.90;64.60;;;25.00;32.73;99934.66;4980046;28;20702;-66
2023/10/18 09:34:53;;;;;;;5.50;4.60;;;25.30;64.30;;;25.55;32.43;99931.00;4973141;28;21061;-66
2023/10/18 09:37:29;;;;;;;8.30;6.20;;;25.70;63.30;;;25.66;31.81;99940.91;4987817;28;21267;-65
2023/10/18 09:39:56;;;;;;;3.77;2.93;;;25.90;62.30;;;25.19;32.06;99930.97;4986582;28;20657;-66
2023/10/18 09:42:25;;;;;;;8.20;6.00;;;25.50;61.70;;;24.18;33.22;99930.34;4987283;28;20631;-65
2023/10/18 09:44:52;;;;;;;20.50;5.43;;;24.50;62.70;;;23.10;35.11;99925.03;4985328;28;21246;-66
2023/10/18 09:47:23;;;;;;;7.20;5.17;;;23.40;64.50;;;22.23;36.78;99916.44;4988811;28;20641;-65
2023/10/18 09:49:51;;;;;;;6.03;4.53;;;22.40;66.50;;;21.30;38.25;99909.13;4989878;28;20662;-65
2023/10/18 09:52:18;;;;;;;8.07;4.37;;;21.40;68.40;;;20.58;39.59;99899.84;4986901;28;20736;-65
2023/10/18 09:54:50;;;;;;;7.73;4.53;;;20.70;70.20;;;19.93;40.80;99892.91;4981832;28;20665;-65
2023/10/18 09:57:26;;;;;;;5.73;3.60;;;20.00;72.00;;;19.38;42.12;99883.94;4983248;28;20641;-66
2023/10/18 09:59:58;;;;;;;6.90;4.70;;;19.40;73.50;;;18.84;43.24;99875.44;4988972;28;20704;-66
2023/10/18 10:02:25;;;;;;;7.67;5.03;;;18.90;75.30;;;18.42;44.09;99873.34;4986196;28;20630;-65
2023/10/18 10:05:04;;;;;;;9.03;5.00;;;18.40;76.60;;;18.00;45.12;99875.63;4983233;28;21183;-66
2023/10/18 10:07:41;;;;;;;6.43;4.90;;;18.00;78.90;;;17.66;46.05;99881.28;4988925;28;20648;-66
2023/10/18 10:10:18;;;;;;;8.20;5.43;;;17.60;79.70;;;17.31;46.72;99868.59;4981004;28;21022;-66
2023/10/18 10:12:45;;;;;;;7.60;4.40;;;17.30;81.00;;;17.02;47.61;99867.38;4987391;28;20636;-65
2023/10/18 10:15:17;;;;;;;13.23;5.73;;;17.00;82.50;;;16.85;48.28;99860.50;4986350;28;20728;-65
2023/10/18 10:17:58;;;;;;;10.77;5.70;;;16.80;83.70;;;16.84;48.67;99852.78;4988827;28;20626;-66
2023/10/18 10:20:32;;;;;;;9.20;4.80;;;16.70;84.70;;;17.12;48.21;99856.66;4987031;28;20646;-66
2023/10/18 10:23:06;;;;;;;12.37;6.20;;;17.10;84.60;;;17.57;47.28;99855.94;4987665;28;20692;-66
2023/10/18 10:25:34;;;;;;;10.70;5.97;;;17.70;83.30;;;18.48;45.52;99840.94;4987310;28;20637;-66
2023/10/18 10:29:10;;;;;;;11.70;7.00;;;18.50;81.60;;;18.83;44.55;99842.06;4991890;28;21242;-66
2023/10/18 10:31:54;;;;;;;3.30;2.30;;;18.80;80.30;;;18.25;45.17;99830.38;4986383;28;20704;-66
2023/10/18 10:34:27;;;;;;;4.43;3.37;;;18.30;80.80;;;17.64;nan;99826.06;4976241;28;21114;-67
2023/10/18 10:37:09;;;;;;;8.73;4.87;;;17.70;81.90;;;17.02;nan;99819.94;4985684;28;20638;-66
2023/10/18 10:39:49;;;;;;;4.33;3.40;;;17.00;83.80;;;16.48;nan;99802.31;4990565;28;20661;-66
2023/10/18 10:42:44;;;;;;;3.87;2.77;;;16.50;85.90;;;16.06;nan;99801.66;4985051;28;21016;-66
2023/10/18 10:45:30;;;;;;;9.30;4.53;;;16.00;88.30;;;15.78;nan;99797.75;4993299;28;20631;-66
2023/10/18 10:48:30;;;;;;;6.53;4.53;;;15.70;89.60;;;15.58;nan;99794.59;4992670;28;20638;-66
2023/10/18 10:51:24;;;;;;;9.50;4.67;;;15.40;90.60;;;15.40;nan;99785.97;4992062;28;20645;-66
2023/10/18 10:53:58;;;;;;;5.17;3.87;;;15.20;91.10;;;15.34;nan;99784.81;4990834;28;20660;-66
2023/10/18 10:56:27;;;;;;;2.40;2.17;;;15.20;91.60;;;15.25;nan;99779.69;4992642;28;20801;-66
2023/10/18 10:59:21;;;;;;;3.13;2.67;;;15.10;91.90;;;15.19;nan;99770.66;4991158;28;20658;-65
2023/10/18 11:05:21;;;;;;;4.27;2.47;;;15.00;93.20;;;15.29;nan;99768.69;4991295;28;20634;-65
2023/10/18 11:07:24;;;;;;;4.80;3.53;;;15.00;93.20;;;15.33;nan;99754.25;4991374;28;20641;-66
2023/10/18 11:09:59;;;;;;;7.87;3.77;;;15.10;93.40;;;15.33;nan;99754.25;4992943;28;20653;-66
2023/10/18 11:12:27;;;;;;;1.47;1.10;;;15.00;93.30;;;15.32;nan;99747.34;4986738;28;20645;-66
2023/10/18 11:14:55;;;;;;;2.93;2.20;;;15.10;93.00;;;15.26;nan;99737.50;4991089;28;20685;-66
2023/10/18 11:17:24;;;;;;;6.30;3.80;;;15.00;92.70;;;15.19;nan;99728.59;4991529;28;20637;-66
2023/10/18 11:19:59;;;;;;;4.70;2.20;;;14.90;92.90;;;15.22;nan;99722.22;4992509;28;20730;-66
2023/10/18 11:22:32;;;;;;;1.83;1.43;;;15.00;93.10;;;15.26;nan;99723.53;4990133;28;20703;-66
2023/10/18 11:25:00;;;;;;;3.90;2.63;;;15.00;93.30;;;15.26;nan;99713.00;4992121;28;20708;-65
2023/10/18 11:27:33;;;;;;;1.67;1.40;;;15.00;93.40;;;15.28;nan;99708.41;4992378;28;21030;-66
2023/10/18 11:30:22;;;;;;;3.50;2.37;;;15.00;93.60;;;15.28;nan;99695.28;4991437;28;20672;-66
2023/10/18 11:32:55;;;;;;;2.27;2.07;;;15.00;93.60;;;15.32;nan;99684.28;4990882;28;20692;-66
2023/10/18 11:35:42;;;;;;;4.33;2.77;;;15.10;93.80;;;15.30;nan;99688.06;4990166;28;20705;-66